sensor_id;sensor_type;location;lat;lon;timestamp;P1;durP1;ratioP1;P2;durP2;ratioP2
74344;SDS011;62776;50.518;6.732;2023-05-07T00:00:48;1.02;;;0.93;;
74344;SDS011;62776;50.518;6.732;2023-05-07T00:03:34;1.33;;;1.23;;
74344;SDS011;62776;50.518;6.732;2023-05-07T00:06:23;1.35;;;1.17;;
74344;SDS011;62776;50.518;6.732;2023-05-07T00:09:13;0.70;;;0.70;;
74344;SDS011;62776;50.518;6.732;2023-05-07T00:14:52;1.00;;;0.82;;
74344;SDS011;62776;50.518;6.732;2023-05-07T00:17:40;1.13;;;0.90;;
74344;SDS011;62776;50.518;6.732;2023-05-07T00:20:26;1.25;;;1.10;;
74344;SDS011;62776;50.518;6.732;2023-05-07T00:23:13;2.00;;;1.00;;
74344;SDS011;62776;50.518;6.732;2023-05-07T00:26:01;1.67;;;1.30;;
74344;SDS011;62776;50.518;6.732;2023-05-07T00:28:54;1.23;;;1.13;;
74344;SDS011;62776;50.518;6.732;2023-05-07T00:31:40;0.88;;;0.85;;
74344;SDS011;62776;50.518;6.732;2023-05-07T00:34:27;2.05;;;0.93;;
74344;SDS011;62776;50.518;6.732;2023-05-07T00:37:15;1.00;;;0.90;;
74344;SDS011;62776;50.518;6.732;2023-05-07T00:40:02;1.20;;;1.10;;
74344;SDS011;62776;50.518;6.732;2023-05-07T00:42:53;1.23;;;0.85;;
74344;SDS011;62776;50.518;6.732;2023-05-07T00:45:43;0.93;;;0.93;;
74344;SDS011;62776;50.518;6.732;2023-05-07T00:48:29;1.73;;;0.90;;
74344;SDS011;62776;50.518;6.732;2023-05-07T00:51:17;2.35;;;1.00;;
74344;SDS011;62776;50.518;6.732;2023-05-07T00:54:04;1.23;;;1.10;;
74344;SDS011;62776;50.518;6.732;2023-05-07T00:56:51;1.00;;;0.90;;
74344;SDS011;62776;50.518;6.732;2023-05-07T00:59:37;0.80;;;0.80;;
74344;SDS011;62776;50.518;6.732;2023-05-07T01:02:25;0.93;;;0.90;;
74344;SDS011;62776;50.518;6.732;2023-05-07T01:05:12;0.70;;;0.70;;
74344;SDS011;62776;50.518;6.732;2023-05-07T01:08:10;0.80;;;0.80;;
74344;SDS011;62776;50.518;6.732;2023-05-07T01:10:58;1.15;;;1.00;;
74344;SDS011;62776;50.518;6.732;2023-05-07T01:13:51;1.08;;;0.98;;
74344;SDS011;62776;50.518;6.732;2023-05-07T01:19:32;1.30;;;0.90;;
74344;SDS011;62776;50.518;6.732;2023-05-07T01:25:34;1.17;;;1.10;;
74344;SDS011;62776;50.518;6.732;2023-05-07T01:28:21;1.30;;;0.98;;
74344;SDS011;62776;50.518;6.732;2023-05-07T01:31:07;0.98;;;0.90;;
74344;SDS011;62776;50.518;6.732;2023-05-07T01:33:54;2.28;;;0.90;;
74344;SDS011;62776;50.518;6.732;2023-05-07T01:36:53;2.17;;;0.85;;
74344;SDS011;62776;50.518;6.732;2023-05-07T01:39:44;1.38;;;1.00;;
74344;SDS011;62776;50.518;6.732;2023-05-07T01:42:30;0.88;;;0.88;;
74344;SDS011;62776;50.518;6.732;2023-05-07T01:45:17;1.38;;;0.98;;
74344;SDS011;62776;50.518;6.732;2023-05-07T01:48:03;1.00;;;1.00;;
74344;SDS011;62776;50.518;6.732;2023-05-07T01:50:50;1.20;;;1.10;;
74344;SDS011;62776;50.518;6.732;2023-05-07T01:53:38;1.58;;;0.98;;
74344;SDS011;62776;50.518;6.732;2023-05-07T01:56:25;1.67;;;1.20;;
74344;SDS011;62776;50.518;6.732;2023-05-07T01:59:11;1.55;;;1.15;;
74344;SDS011;62776;50.518;6.732;2023-05-07T02:01:58;1.15;;;1.05;;
74344;SDS011;62776;50.518;6.732;2023-05-07T02:04:45;1.02;;;0.93;;
74344;SDS011;62776;50.518;6.732;2023-05-07T02:07:32;1.85;;;0.65;;
74344;SDS011;62776;50.518;6.732;2023-05-07T02:10:18;1.33;;;1.00;;
74344;SDS011;62776;50.518;6.732;2023-05-07T02:13:06;0.63;;;0.63;;
74344;SDS011;62776;50.518;6.732;2023-05-07T02:15:52;0.82;;;0.80;;
74344;SDS011;62776;50.518;6.732;2023-05-07T02:18:39;1.00;;;0.90;;
74344;SDS011;62776;50.518;6.732;2023-05-07T02:21:26;1.02;;;0.90;;
74344;SDS011;62776;50.518;6.732;2023-05-07T02:24:12;0.90;;;0.90;;
74344;SDS011;62776;50.518;6.732;2023-05-07T02:27:00;1.20;;;1.00;;
74344;SDS011;62776;50.518;6.732;2023-05-07T02:29:47;1.10;;;1.00;;
74344;SDS011;62776;50.518;6.732;2023-05-07T02:32:35;1.60;;;1.00;;
74344;SDS011;62776;50.518;6.732;2023-05-07T02:35:24;1.30;;;1.02;;
74344;SDS011;62776;50.518;6.732;2023-05-07T02:38:11;1.52;;;1.00;;
74344;SDS011;62776;50.518;6.732;2023-05-07T02:40:59;2.13;;;0.90;;
74344;SDS011;62776;50.518;6.732;2023-05-07T02:43:52;1.00;;;0.95;;
74344;SDS011;62776;50.518;6.732;2023-05-07T02:46:38;2.45;;;0.90;;
74344;SDS011;62776;50.518;6.732;2023-05-07T02:49:26;1.58;;;0.90;;
74344;SDS011;62776;50.518;6.732;2023-05-07T02:52:15;3.13;;;0.70;;
74344;SDS011;62776;50.518;6.732;2023-05-07T02:55:01;1.15;;;1.05;;
74344;SDS011;62776;50.518;6.732;2023-05-07T02:57:48;1.60;;;1.08;;
74344;SDS011;62776;50.518;6.732;2023-05-07T03:00:35;1.60;;;1.10;;
74344;SDS011;62776;50.518;6.732;2023-05-07T03:03:22;1.42;;;0.90;;
74344;SDS011;62776;50.518;6.732;2023-05-07T03:06:09;1.45;;;1.02;;
74344;SDS011;62776;50.518;6.732;2023-05-07T03:08:55;0.95;;;0.75;;
74344;SDS011;62776;50.518;6.732;2023-05-07T03:11:41;1.80;;;1.00;;
74344;SDS011;62776;50.518;6.732;2023-05-07T03:14:30;0.70;;;0.70;;
74344;SDS011;62776;50.518;6.732;2023-05-07T03:17:16;1.10;;;0.98;;
74344;SDS011;62776;50.518;6.732;2023-05-07T03:20:03;1.13;;;0.93;;
74344;SDS011;62776;50.518;6.732;2023-05-07T03:22:50;2.05;;;0.90;;
74344;SDS011;62776;50.518;6.732;2023-05-07T03:25:44;1.13;;;1.02;;
74344;SDS011;62776;50.518;6.732;2023-05-07T03:28:30;1.75;;;1.23;;
74344;SDS011;62776;50.518;6.732;2023-05-07T03:31:16;4.47;;;1.30;;
74344;SDS011;62776;50.518;6.732;2023-05-07T03:34:04;1.08;;;0.98;;
74344;SDS011;62776;50.518;6.732;2023-05-07T03:36:50;1.50;;;1.10;;
74344;SDS011;62776;50.518;6.732;2023-05-07T03:39:37;0.95;;;0.95;;
74344;SDS011;62776;50.518;6.732;2023-05-07T03:42:23;1.20;;;1.00;;
74344;SDS011;62776;50.518;6.732;2023-05-07T03:45:17;1.20;;;1.10;;
74344;SDS011;62776;50.518;6.732;2023-05-07T03:48:09;1.23;;;0.90;;
74344;SDS011;62776;50.518;6.732;2023-05-07T03:50:59;1.75;;;0.98;;
74344;SDS011;62776;50.518;6.732;2023-05-07T03:53:46;1.50;;;0.90;;
74344;SDS011;62776;50.518;6.732;2023-05-07T03:56:33;1.20;;;1.10;;
74344;SDS011;62776;50.518;6.732;2023-05-07T03:59:19;1.08;;;0.98;;
74344;SDS011;62776;50.518;6.732;2023-05-07T04:02:07;1.70;;;1.10;;
74344;SDS011;62776;50.518;6.732;2023-05-07T04:04:54;1.83;;;1.08;;
74344;SDS011;62776;50.518;6.732;2023-05-07T04:07:40;1.27;;;1.17;;
74344;SDS011;62776;50.518;6.732;2023-05-07T04:10:30;1.00;;;1.00;;
74344;SDS011;62776;50.518;6.732;2023-05-07T04:16:09;1.08;;;0.95;;
74344;SDS011;62776;50.518;6.732;2023-05-07T04:18:55;1.98;;;0.95;;
74344;SDS011;62776;50.518;6.732;2023-05-07T04:21:41;0.80;;;0.80;;
74344;SDS011;62776;50.518;6.732;2023-05-07T04:24:31;2.80;;;1.13;;
74344;SDS011;62776;50.518;6.732;2023-05-07T04:27:21;1.63;;;1.00;;
74344;SDS011;62776;50.518;6.732;2023-05-07T04:30:07;1.00;;;1.00;;
74344;SDS011;62776;50.518;6.732;2023-05-07T04:32:54;1.35;;;0.88;;
74344;SDS011;62776;50.518;6.732;2023-05-07T04:35:42;2.03;;;1.00;;
74344;SDS011;62776;50.518;6.732;2023-05-07T04:38:29;0.88;;;0.77;;
74344;SDS011;62776;50.518;6.732;2023-05-07T04:41:16;0.90;;;0.90;;
74344;SDS011;62776;50.518;6.732;2023-05-07T04:44:03;1.35;;;0.85;;
74344;SDS011;62776;50.518;6.732;2023-05-07T04:46:49;1.02;;;0.90;;
74344;SDS011;62776;50.518;6.732;2023-05-07T04:49:38;2.60;;;1.15;;
74344;SDS011;62776;50.518;6.732;2023-05-07T04:52:26;1.38;;;0.90;;
74344;SDS011;62776;50.518;6.732;2023-05-07T04:55:18;1.27;;;1.17;;
74344;SDS011;62776;50.518;6.732;2023-05-07T04:58:06;1.05;;;0.98;;
74344;SDS011;62776;50.518;6.732;2023-05-07T05:00:53;2.35;;;1.10;;
74344;SDS011;62776;50.518;6.732;2023-05-07T05:03:41;2.05;;;1.42;;
74344;SDS011;62776;50.518;6.732;2023-05-07T05:06:29;2.58;;;0.80;;
74344;SDS011;62776;50.518;6.732;2023-05-07T05:09:16;1.13;;;0.90;;
74344;SDS011;62776;50.518;6.732;2023-05-07T05:12:09;1.33;;;1.20;;
74344;SDS011;62776;50.518;6.732;2023-05-07T05:14:55;1.40;;;1.00;;
74344;SDS011;62776;50.518;6.732;2023-05-07T05:17:42;0.80;;;0.80;;
74344;SDS011;62776;50.518;6.732;2023-05-07T05:20:28;1.00;;;0.90;;
74344;SDS011;62776;50.518;6.732;2023-05-07T05:23:22;1.02;;;0.98;;
74344;SDS011;62776;50.518;6.732;2023-05-07T05:26:09;1.83;;;1.08;;
74344;SDS011;62776;50.518;6.732;2023-05-07T05:29:01;1.05;;;0.98;;
74344;SDS011;62776;50.518;6.732;2023-05-07T05:31:48;1.20;;;1.10;;
74344;SDS011;62776;50.518;6.732;2023-05-07T05:37:32;1.27;;;0.98;;
74344;SDS011;62776;50.518;6.732;2023-05-07T05:40:19;0.93;;;0.90;;
74344;SDS011;62776;50.518;6.732;2023-05-07T05:43:08;1.02;;;1.02;;
74344;SDS011;62776;50.518;6.732;2023-05-07T05:45:55;2.72;;;1.25;;
74344;SDS011;62776;50.518;6.732;2023-05-07T05:48:43;1.98;;;0.90;;
74344;SDS011;62776;50.518;6.732;2023-05-07T05:51:30;0.80;;;0.80;;
74344;SDS011;62776;50.518;6.732;2023-05-07T05:54:17;0.88;;;0.88;;
74344;SDS011;62776;50.518;6.732;2023-05-07T05:57:09;1.02;;;0.90;;
74344;SDS011;62776;50.518;6.732;2023-05-07T05:59:55;1.23;;;1.20;;
74344;SDS011;62776;50.518;6.732;2023-05-07T06:02:42;0.80;;;0.80;;
74344;SDS011;62776;50.518;6.732;2023-05-07T06:05:28;1.50;;;1.05;;
74344;SDS011;62776;50.518;6.732;2023-05-07T06:08:16;1.90;;;0.90;;
74344;SDS011;62776;50.518;6.732;2023-05-07T06:11:03;1.10;;;1.10;;
74344;SDS011;62776;50.518;6.732;2023-05-07T06:13:57;1.58;;;1.30;;
74344;SDS011;62776;50.518;6.732;2023-05-07T06:16:43;1.33;;;1.10;;
74344;SDS011;62776;50.518;6.732;2023-05-07T06:22:29;1.25;;;0.98;;
74344;SDS011;62776;50.518;6.732;2023-05-07T06:25:17;1.58;;;1.00;;
74344;SDS011;62776;50.518;6.732;2023-05-07T06:28:04;1.02;;;0.93;;
74344;SDS011;62776;50.518;6.732;2023-05-07T06:30:51;0.82;;;0.82;;
74344;SDS011;62776;50.518;6.732;2023-05-07T06:33:38;1.25;;;0.93;;
74344;SDS011;62776;50.518;6.732;2023-05-07T06:36:33;1.13;;;1.02;;
74344;SDS011;62776;50.518;6.732;2023-05-07T06:39:20;1.10;;;1.00;;
74344;SDS011;62776;50.518;6.732;2023-05-07T06:42:07;1.15;;;0.95;;
74344;SDS011;62776;50.518;6.732;2023-05-07T06:44:53;3.38;;;1.15;;
74344;SDS011;62776;50.518;6.732;2023-05-07T06:47:40;1.65;;;1.25;;
74344;SDS011;62776;50.518;6.732;2023-05-07T06:50:28;0.82;;;0.82;;
74344;SDS011;62776;50.518;6.732;2023-05-07T06:53:15;2.47;;;1.15;;
74344;SDS011;62776;50.518;6.732;2023-05-07T06:56:01;0.70;;;0.70;;
74344;SDS011;62776;50.518;6.732;2023-05-07T06:58:47;0.80;;;0.80;;
74344;SDS011;62776;50.518;6.732;2023-05-07T07:01:36;1.10;;;1.00;;
74344;SDS011;62776;50.518;6.732;2023-05-07T07:04:23;1.98;;;1.33;;
74344;SDS011;62776;50.518;6.732;2023-05-07T07:07:10;0.93;;;0.90;;
74344;SDS011;62776;50.518;6.732;2023-05-07T07:09:56;1.20;;;1.10;;
74344;SDS011;62776;50.518;6.732;2023-05-07T07:12:46;4.93;;;1.23;;
74344;SDS011;62776;50.518;6.732;2023-05-07T07:15:32;1.35;;;1.00;;
74344;SDS011;62776;50.518;6.732;2023-05-07T07:18:26;1.50;;;1.08;;
74344;SDS011;62776;50.518;6.732;2023-05-07T07:21:14;1.23;;;1.00;;
74344;SDS011;62776;50.518;6.732;2023-05-07T07:24:02;1.60;;;0.93;;
74344;SDS011;62776;50.518;6.732;2023-05-07T07:26:49;1.20;;;1.10;;
74344;SDS011;62776;50.518;6.732;2023-05-07T07:29:37;1.20;;;0.90;;
74344;SDS011;62776;50.518;6.732;2023-05-07T07:32:23;1.10;;;1.00;;
74344;SDS011;62776;50.518;6.732;2023-05-07T07:35:11;1.17;;;0.98;;
74344;SDS011;62776;50.518;6.732;2023-05-07T07:38:00;1.67;;;1.02;;
74344;SDS011;62776;50.518;6.732;2023-05-07T07:40:47;1.63;;;1.10;;
74344;SDS011;62776;50.518;6.732;2023-05-07T07:43:34;1.00;;;1.00;;
74344;SDS011;62776;50.518;6.732;2023-05-07T07:46:21;2.03;;;1.00;;
74344;SDS011;62776;50.518;6.732;2023-05-07T07:49:09;1.30;;;1.13;;
74344;SDS011;62776;50.518;6.732;2023-05-07T07:51:56;1.17;;;1.00;;
74344;SDS011;62776;50.518;6.732;2023-05-07T07:54:44;0.90;;;0.90;;
74344;SDS011;62776;50.518;6.732;2023-05-07T07:57:31;1.00;;;0.80;;
74344;SDS011;62776;50.518;6.732;2023-05-07T08:00:18;1.10;;;1.00;;
74344;SDS011;62776;50.518;6.732;2023-05-07T08:03:05;1.45;;;0.90;;
74344;SDS011;62776;50.518;6.732;2023-05-07T08:05:54;1.92;;;0.90;;
74344;SDS011;62776;50.518;6.732;2023-05-07T08:08:46;0.80;;;0.80;;
74344;SDS011;62776;50.518;6.732;2023-05-07T08:11:34;2.38;;;0.70;;
74344;SDS011;62776;50.518;6.732;2023-05-07T08:14:21;1.70;;;1.00;;
74344;SDS011;62776;50.518;6.732;2023-05-07T08:17:08;1.33;;;1.08;;
74344;SDS011;62776;50.518;6.732;2023-05-07T08:19:55;1.02;;;0.88;;
74344;SDS011;62776;50.518;6.732;2023-05-07T08:22:47;0.88;;;0.88;;
74344;SDS011;62776;50.518;6.732;2023-05-07T08:25:40;0.90;;;0.90;;
74344;SDS011;62776;50.518;6.732;2023-05-07T08:28:33;1.02;;;0.90;;
74344;SDS011;62776;50.518;6.732;2023-05-07T08:31:21;3.55;;;0.80;;
74344;SDS011;62776;50.518;6.732;2023-05-07T08:34:07;1.35;;;1.25;;
74344;SDS011;62776;50.518;6.732;2023-05-07T08:36:55;1.00;;;0.90;;
74344;SDS011;62776;50.518;6.732;2023-05-07T08:39:43;1.30;;;0.73;;
74344;SDS011;62776;50.518;6.732;2023-05-07T08:42:29;1.45;;;1.00;;
74344;SDS011;62776;50.518;6.732;2023-05-07T08:45:21;0.77;;;0.70;;
74344;SDS011;62776;50.518;6.732;2023-05-07T08:48:09;0.80;;;0.73;;
74344;SDS011;62776;50.518;6.732;2023-05-07T08:51:08;0.70;;;0.70;;
74344;SDS011;62776;50.518;6.732;2023-05-07T08:53:57;0.80;;;0.80;;
74344;SDS011;62776;50.518;6.732;2023-05-07T08:56:46;1.40;;;1.00;;
74344;SDS011;62776;50.518;6.732;2023-05-07T08:59:33;1.02;;;0.90;;
74344;SDS011;62776;50.518;6.732;2023-05-07T09:02:19;1.95;;;0.77;;
74344;SDS011;62776;50.518;6.732;2023-05-07T09:05:07;0.70;;;0.70;;
74344;SDS011;62776;50.518;6.732;2023-05-07T09:07:54;1.00;;;0.90;;
74344;SDS011;62776;50.518;6.732;2023-05-07T09:10:40;0.70;;;0.70;;
74344;SDS011;62776;50.518;6.732;2023-05-07T09:13:32;1.02;;;0.80;;
74344;SDS011;62776;50.518;6.732;2023-05-07T09:16:20;1.42;;;1.10;;
74344;SDS011;62776;50.518;6.732;2023-05-07T09:19:07;1.10;;;1.05;;
74344;SDS011;62776;50.518;6.732;2023-05-07T09:22:00;1.33;;;0.90;;
74344;SDS011;62776;50.518;6.732;2023-05-07T09:24:50;3.92;;;1.00;;
74344;SDS011;62776;50.518;6.732;2023-05-07T09:27:37;1.48;;;0.73;;
74344;SDS011;62776;50.518;6.732;2023-05-07T09:30:31;0.80;;;0.80;;
74344;SDS011;62776;50.518;6.732;2023-05-07T09:33:19;0.70;;;0.70;;
74344;SDS011;62776;50.518;6.732;2023-05-07T09:36:07;2.33;;;0.90;;
74344;SDS011;62776;50.518;6.732;2023-05-07T09:38:58;1.10;;;0.88;;
74344;SDS011;62776;50.518;6.732;2023-05-07T09:41:51;0.73;;;0.73;;
74344;SDS011;62776;50.518;6.732;2023-05-07T09:44:40;0.88;;;0.60;;
74344;SDS011;62776;50.518;6.732;2023-05-07T09:47:28;1.08;;;0.90;;
74344;SDS011;62776;50.518;6.732;2023-05-07T09:50:29;2.22;;;0.90;;
74344;SDS011;62776;50.518;6.732;2023-05-07T09:53:20;0.80;;;0.70;;
74344;SDS011;62776;50.518;6.732;2023-05-07T09:56:07;1.10;;;0.60;;
74344;SDS011;62776;50.518;6.732;2023-05-07T09:58:54;1.27;;;0.90;;
74344;SDS011;62776;50.518;6.732;2023-05-07T10:01:45;2.88;;;0.95;;
74344;SDS011;62776;50.518;6.732;2023-05-07T10:04:42;0.77;;;0.77;;
74344;SDS011;62776;50.518;6.732;2023-05-07T10:07:29;1.58;;;1.15;;
74344;SDS011;62776;50.518;6.732;2023-05-07T10:10:18;0.82;;;0.82;;
74344;SDS011;62776;50.518;6.732;2023-05-07T10:13:05;1.25;;;1.15;;
74344;SDS011;62776;50.518;6.732;2023-05-07T10:15:55;1.48;;;0.70;;
74344;SDS011;62776;50.518;6.732;2023-05-07T10:18:43;1.85;;;0.90;;
74344;SDS011;62776;50.518;6.732;2023-05-07T10:21:33;3.92;;;1.25;;
74344;SDS011;62776;50.518;6.732;2023-05-07T10:24:26;1.02;;;0.70;;
74344;SDS011;62776;50.518;6.732;2023-05-07T10:27:16;1.52;;;0.85;;
74344;SDS011;62776;50.518;6.732;2023-05-07T10:30:17;0.80;;;0.80;;
74344;SDS011;62776;50.518;6.732;2023-05-07T10:33:32;0.95;;;0.88;;
74344;SDS011;62776;50.518;6.732;2023-05-07T10:36:21;0.70;;;0.70;;
74344;SDS011;62776;50.518;6.732;2023-05-07T10:39:11;1.00;;;0.82;;
74344;SDS011;62776;50.518;6.732;2023-05-07T10:42:12;0.70;;;0.70;;
74344;SDS011;62776;50.518;6.732;2023-05-07T10:45:16;0.73;;;0.70;;
74344;SDS011;62776;50.518;6.732;2023-05-07T10:51:17;0.60;;;0.60;;
74344;SDS011;62776;50.518;6.732;2023-05-07T11:03:23;1.23;;;1.05;;
74344;SDS011;62776;50.518;6.732;2023-05-07T11:06:14;1.65;;;0.95;;
74344;SDS011;62776;50.518;6.732;2023-05-07T11:09:03;0.60;;;0.60;;
74344;SDS011;62776;50.518;6.732;2023-05-07T11:11:50;1.67;;;0.82;;
74344;SDS011;62776;50.518;6.732;2023-05-07T11:14:43;0.73;;;0.68;;
74344;SDS011;62776;50.518;6.732;2023-05-07T11:17:33;0.80;;;0.80;;
74344;SDS011;62776;50.518;6.732;2023-05-07T11:20:20;5.63;;;1.70;;
74344;SDS011;62776;50.518;6.732;2023-05-07T11:26:23;1.27;;;1.05;;
74344;SDS011;62776;50.518;6.732;2023-05-07T11:29:21;1.10;;;0.93;;
74344;SDS011;62776;50.518;6.732;2023-05-07T11:32:08;1.35;;;1.00;;
74344;SDS011;62776;50.518;6.732;2023-05-07T11:34:55;1.23;;;0.90;;
74344;SDS011;62776;50.518;6.732;2023-05-07T11:37:44;1.20;;;1.02;;
74344;SDS011;62776;50.518;6.732;2023-05-07T11:40:32;1.10;;;1.00;;
74344;SDS011;62776;50.518;6.732;2023-05-07T11:43:19;1.30;;;1.20;;
74344;SDS011;62776;50.518;6.732;2023-05-07T11:46:12;3.55;;;1.10;;
74344;SDS011;62776;50.518;6.732;2023-05-07T11:49:00;1.13;;;1.00;;
74344;SDS011;62776;50.518;6.732;2023-05-07T11:51:47;1.90;;;1.00;;
74344;SDS011;62776;50.518;6.732;2023-05-07T11:54:35;2.83;;;1.30;;
74344;SDS011;62776;50.518;6.732;2023-05-07T11:57:24;0.95;;;0.85;;
74344;SDS011;62776;50.518;6.732;2023-05-07T12:00:17;1.48;;;1.10;;
74344;SDS011;62776;50.518;6.732;2023-05-07T12:03:04;1.20;;;1.10;;
74344;SDS011;62776;50.518;6.732;2023-05-07T12:05:52;1.23;;;1.13;;
74344;SDS011;62776;50.518;6.732;2023-05-07T12:08:39;1.52;;;1.15;;
74344;SDS011;62776;50.518;6.732;2023-05-07T12:11:28;1.10;;;0.90;;
74344;SDS011;62776;50.518;6.732;2023-05-07T12:14:21;1.85;;;1.33;;
74344;SDS011;62776;50.518;6.732;2023-05-07T12:17:13;0.80;;;0.80;;
74344;SDS011;62776;50.518;6.732;2023-05-07T12:20:02;0.63;;;0.63;;
74344;SDS011;62776;50.518;6.732;2023-05-07T12:22:50;1.33;;;0.90;;
74344;SDS011;62776;50.518;6.732;2023-05-07T12:25:38;1.63;;;1.13;;
74344;SDS011;62776;50.518;6.732;2023-05-07T12:28:28;1.45;;;1.10;;
74344;SDS011;62776;50.518;6.732;2023-05-07T12:31:15;1.15;;;0.95;;
74344;SDS011;62776;50.518;6.732;2023-05-07T12:34:02;1.23;;;1.02;;
74344;SDS011;62776;50.518;6.732;2023-05-07T12:36:50;1.40;;;0.88;;
74344;SDS011;62776;50.518;6.732;2023-05-07T12:39:36;1.33;;;1.00;;
74344;SDS011;62776;50.518;6.732;2023-05-07T12:42:23;0.85;;;0.85;;
74344;SDS011;62776;50.518;6.732;2023-05-07T12:45:18;1.27;;;1.17;;
74344;SDS011;62776;50.518;6.732;2023-05-07T12:48:05;0.80;;;0.80;;
74344;SDS011;62776;50.518;6.732;2023-05-07T12:50:53;1.55;;;1.08;;
74344;SDS011;62776;50.518;6.732;2023-05-07T12:53:42;2.88;;;1.15;;
74344;SDS011;62776;50.518;6.732;2023-05-07T12:56:36;4.50;;;1.23;;
74344;SDS011;62776;50.518;6.732;2023-05-07T12:59:30;1.75;;;1.20;;
74344;SDS011;62776;50.518;6.732;2023-05-07T13:02:31;2.75;;;0.95;;
74344;SDS011;62776;50.518;6.732;2023-05-07T13:05:19;3.15;;;1.45;;
74344;SDS011;62776;50.518;6.732;2023-05-07T13:08:08;2.25;;;1.48;;
74344;SDS011;62776;50.518;6.732;2023-05-07T13:11:01;1.40;;;1.30;;
74344;SDS011;62776;50.518;6.732;2023-05-07T13:13:55;1.58;;;1.48;;
74344;SDS011;62776;50.518;6.732;2023-05-07T13:16:41;2.03;;;1.83;;
74344;SDS011;62776;50.518;6.732;2023-05-07T13:19:33;1.98;;;1.77;;
74344;SDS011;62776;50.518;6.732;2023-05-07T13:22:20;1.63;;;1.52;;
74344;SDS011;62776;50.518;6.732;2023-05-07T13:25:07;2.13;;;1.90;;
74344;SDS011;62776;50.518;6.732;2023-05-07T13:27:54;1.70;;;1.60;;
74344;SDS011;62776;50.518;6.732;2023-05-07T13:30:43;2.25;;;1.70;;
74344;SDS011;62776;50.518;6.732;2023-05-07T13:33:31;2.22;;;1.65;;
74344;SDS011;62776;50.518;6.732;2023-05-07T13:36:19;8.25;;;2.20;;
74344;SDS011;62776;50.518;6.732;2023-05-07T13:39:06;1.75;;;1.63;;
74344;SDS011;62776;50.518;6.732;2023-05-07T13:41:58;2.25;;;2.00;;
74344;SDS011;62776;50.518;6.732;2023-05-07T13:44:44;2.45;;;2.20;;
74344;SDS011;62776;50.518;6.732;2023-05-07T13:47:31;2.45;;;2.25;;
74344;SDS011;62776;50.518;6.732;2023-05-07T13:50:19;2.22;;;2.00;;
74344;SDS011;62776;50.518;6.732;2023-05-07T13:53:07;2.25;;;2.00;;
74344;SDS011;62776;50.518;6.732;2023-05-07T13:55:54;3.20;;;1.92;;
74344;SDS011;62776;50.518;6.732;2023-05-07T13:58:40;2.42;;;2.22;;
74344;SDS011;62776;50.518;6.732;2023-05-07T14:01:26;2.30;;;1.75;;
74344;SDS011;62776;50.518;6.732;2023-05-07T14:04:27;2.17;;;1.98;;
74344;SDS011;62776;50.518;6.732;2023-05-07T14:07:14;2.83;;;2.38;;
74344;SDS011;62776;50.518;6.732;2023-05-07T14:10:13;1.60;;;1.50;;
74344;SDS011;62776;50.518;6.732;2023-05-07T14:13:00;3.42;;;1.75;;
74344;SDS011;62776;50.518;6.732;2023-05-07T14:15:46;1.90;;;1.70;;
74344;SDS011;62776;50.518;6.732;2023-05-07T14:18:39;2.50;;;1.58;;
74344;SDS011;62776;50.518;6.732;2023-05-07T14:21:25;2.13;;;1.50;;
74344;SDS011;62776;50.518;6.732;2023-05-07T14:27:11;1.38;;;1.27;;
74344;SDS011;62776;50.518;6.732;2023-05-07T14:29:58;1.30;;;1.20;;
74344;SDS011;62776;50.518;6.732;2023-05-07T14:32:45;1.27;;;1.17;;
74344;SDS011;62776;50.518;6.732;2023-05-07T14:35:29;1.63;;;1.50;;
74344;SDS011;62776;50.518;6.732;2023-05-07T14:38:17;1.90;;;1.80;;
74344;SDS011;62776;50.518;6.732;2023-05-07T14:41:03;1.65;;;1.55;;
74344;SDS011;62776;50.518;6.732;2023-05-07T14:43:51;2.35;;;1.70;;
74344;SDS011;62776;50.518;6.732;2023-05-07T14:46:38;1.67;;;1.40;;
74344;SDS011;62776;50.518;6.732;2023-05-07T14:49:30;2.47;;;1.73;;
74344;SDS011;62776;50.518;6.732;2023-05-07T14:52:16;2.10;;;1.85;;
74344;SDS011;62776;50.518;6.732;2023-05-07T14:55:04;2.53;;;1.92;;
74344;SDS011;62776;50.518;6.732;2023-05-07T14:57:50;2.05;;;1.60;;
74344;SDS011;62776;50.518;6.732;2023-05-07T15:00:38;2.00;;;1.80;;
74344;SDS011;62776;50.518;6.732;2023-05-07T15:03:31;3.65;;;1.92;;
74344;SDS011;62776;50.518;6.732;2023-05-07T15:06:25;3.10;;;2.08;;
74344;SDS011;62776;50.518;6.732;2023-05-07T15:09:12;2.22;;;1.98;;
74344;SDS011;62776;50.518;6.732;2023-05-07T15:12:00;2.50;;;2.30;;
74344;SDS011;62776;50.518;6.732;2023-05-07T15:14:47;3.35;;;3.05;;
74344;SDS011;62776;50.518;6.732;2023-05-07T15:17:40;2.95;;;2.42;;
74344;SDS011;62776;50.518;6.732;2023-05-07T15:20:28;2.53;;;2.33;;
74344;SDS011;62776;50.518;6.732;2023-05-07T15:23:20;3.60;;;2.80;;
74344;SDS011;62776;50.518;6.732;2023-05-07T15:26:07;2.25;;;2.10;;
74344;SDS011;62776;50.518;6.732;2023-05-07T15:29:00;2.30;;;2.10;;
74344;SDS011;62776;50.518;6.732;2023-05-07T15:31:55;2.80;;;2.50;;
74344;SDS011;62776;50.518;6.732;2023-05-07T15:34:48;3.85;;;2.55;;
74344;SDS011;62776;50.518;6.732;2023-05-07T15:37:35;2.45;;;2.05;;
74344;SDS011;62776;50.518;6.732;2023-05-07T15:40:22;2.28;;;2.08;;
74344;SDS011;62776;50.518;6.732;2023-05-07T15:43:11;2.40;;;2.20;;
74344;SDS011;62776;50.518;6.732;2023-05-07T15:45:57;2.83;;;2.42;;
74344;SDS011;62776;50.518;6.732;2023-05-07T15:48:46;3.70;;;2.58;;
74344;SDS011;62776;50.518;6.732;2023-05-07T15:51:33;5.68;;;3.15;;
74344;SDS011;62776;50.518;6.732;2023-05-07T15:54:22;3.28;;;2.97;;
74344;SDS011;62776;50.518;6.732;2023-05-07T15:57:10;3.50;;;2.78;;
74344;SDS011;62776;50.518;6.732;2023-05-07T15:59:57;3.33;;;2.53;;
74344;SDS011;62776;50.518;6.732;2023-05-07T16:02:43;3.20;;;2.88;;
74344;SDS011;62776;50.518;6.732;2023-05-07T16:05:29;3.40;;;3.03;;
74344;SDS011;62776;50.518;6.732;2023-05-07T16:08:16;2.95;;;2.65;;
74344;SDS011;62776;50.518;6.732;2023-05-07T16:11:04;3.65;;;3.28;;
74344;SDS011;62776;50.518;6.732;2023-05-07T16:13:51;3.58;;;3.28;;
74344;SDS011;62776;50.518;6.732;2023-05-07T16:16:37;3.05;;;2.72;;
74344;SDS011;62776;50.518;6.732;2023-05-07T16:19:24;5.43;;;3.50;;
74344;SDS011;62776;50.518;6.732;2023-05-07T16:22:18;4.13;;;3.72;;
74344;SDS011;62776;50.518;6.732;2023-05-07T16:25:07;4.68;;;3.78;;
74344;SDS011;62776;50.518;6.732;2023-05-07T16:27:55;4.38;;;3.95;;
74344;SDS011;62776;50.518;6.732;2023-05-07T16:30:41;5.00;;;3.90;;
74344;SDS011;62776;50.518;6.732;2023-05-07T16:33:27;4.90;;;4.50;;
74344;SDS011;62776;50.518;6.732;2023-05-07T16:36:13;4.53;;;4.13;;
74344;SDS011;62776;50.518;6.732;2023-05-07T16:39:12;5.22;;;4.72;;
74344;SDS011;62776;50.518;6.732;2023-05-07T16:41:58;6.35;;;4.53;;
74344;SDS011;62776;50.518;6.732;2023-05-07T16:44:45;3.97;;;3.63;;
74344;SDS011;62776;50.518;6.732;2023-05-07T16:47:39;4.50;;;4.20;;
74344;SDS011;62776;50.518;6.732;2023-05-07T16:50:28;5.03;;;3.88;;
74344;SDS011;62776;50.518;6.732;2023-05-07T16:53:22;5.43;;;4.18;;
74344;SDS011;62776;50.518;6.732;2023-05-07T16:56:11;3.78;;;3.47;;
74344;SDS011;62776;50.518;6.732;2023-05-07T16:59:01;3.67;;;3.38;;
74344;SDS011;62776;50.518;6.732;2023-05-07T17:01:53;3.70;;;2.95;;
74344;SDS011;62776;50.518;6.732;2023-05-07T17:04:39;3.05;;;2.85;;
74344;SDS011;62776;50.518;6.732;2023-05-07T17:07:26;3.28;;;2.58;;
74344;SDS011;62776;50.518;6.732;2023-05-07T17:10:15;3.88;;;3.53;;
74344;SDS011;62776;50.518;6.732;2023-05-07T17:13:02;3.05;;;2.38;;
74344;SDS011;62776;50.518;6.732;2023-05-07T17:15:52;3.10;;;2.88;;
74344;SDS011;62776;50.518;6.732;2023-05-07T17:18:41;2.75;;;2.45;;
74344;SDS011;62776;50.518;6.732;2023-05-07T17:21:30;2.88;;;2.67;;
74344;SDS011;62776;50.518;6.732;2023-05-07T17:24:17;3.05;;;2.85;;
74344;SDS011;62776;50.518;6.732;2023-05-07T17:27:05;2.83;;;2.63;;
74344;SDS011;62776;50.518;6.732;2023-05-07T17:29:51;3.13;;;2.63;;
74344;SDS011;62776;50.518;6.732;2023-05-07T17:32:51;2.33;;;2.13;;